In Rescue
 
Open Full Screen Window  High Contrast Mode
November 20, 2019 3:32 AM EST
Present Weather: Mist
Weather Information
Wind Direction
  ---
Wind Speed
  00 kt (0 mph)
Wind Gust
  00 kt (0 mph)
Altimeter
30.05 in
Visibility
4 SM
Temperature
00° C
32° F
Dewpoint
00° C
32° F
Humidity
100%
Sky Condition
Overcast @ 3,000 ft
MVFR

METAR KOEB 200832Z AUTO 00000KT 4SM BR OVC030 00/00 A3005 RMK AO2 T00000000

FAA Disclaimer: The data displayed is for advisory purposes only and is not to be used for flight planning or operations.